Time;durP1;ratioP1;P1;durP2;ratioP2;P2;SDS_P1;SDS_P2;PMS_P1;PMS_P2;Temp;Humidity;BMP_temperature;BMP_pressure;BME280_temperature;BME280_humidity;BME280_pressure;Samples;Min_cycle;Max_cycle;Signal;HPM_P1;HPM_P2
2022/03/05 00:02:09;;;;;;;82.05;37.50;;;;;;;;;;6265069;28;20032;-69
2022/03/05 00:05:10;;;;;;;80.15;35.83;;;;;;;;;;6269970;28;20056;-69
2022/03/05 00:08:11;;;;;;;69.32;32.58;;;;;;;;;;6268312;28;20104;-69
2022/03/05 00:11:11;;;;;;;71.95;34.00;;;;;;;;;;6270054;28;20013;-69
2022/03/05 00:14:12;;;;;;;61.40;29.88;;;;;;;;;;6269374;28;20437;-69
2022/03/05 00:17:13;;;;;;;67.28;30.83;;;;;;;;;;6269523;28;20039;-69
2022/03/05 00:20:13;;;;;;;62.10;32.20;;;;;;;;;;6253380;28;20029;-69
2022/03/05 00:23:16;;;;;;;73.07;33.88;;;;;;;;;;6244599;28;20350;-69
2022/03/05 00:26:17;;;;;;;76.43;36.22;;;;;;;;;;6251317;28;20140;-69
2022/03/05 00:29:17;;;;;;;76.53;34.88;;;;;;;;;;6244907;28;20425;-69
2022/03/05 00:32:17;;;;;;;62.33;30.98;;;;;;;;;;6265088;28;20070;-69
2022/03/05 00:35:18;;;;;;;74.60;32.50;;;;;;;;;;6268952;28;20020;-69
2022/03/05 00:38:18;;;;;;;72.60;32.83;;;;;;;;;;6247406;28;20358;-69
2022/03/05 00:41:18;;;;;;;67.35;31.73;;;;;;;;;;6244318;28;20029;-69
2022/03/05 00:44:18;;;;;;;76.60;30.30;;;;;;;;;;6244535;28;20045;-69
2022/03/05 00:47:19;;;;;;;62.95;26.25;;;;;;;;;;6243220;28;20439;-69
2022/03/05 00:50:19;;;;;;;84.90;35.20;;;;;;;;;;6251409;28;20013;-69
2022/03/05 00:53:21;;;;;;;74.20;32.65;;;;;;;;;;6262258;28;20025;-69
2022/03/05 00:56:21;;;;;;;80.20;35.53;;;;;;;;;;6266706;28;20021;-69
2022/03/05 00:59:21;;;;;;;72.43;31.83;;;;;;;;;;6268967;28;20538;-69
2022/03/05 01:02:22;;;;;;;69.78;30.25;;;;;;;;;;6268821;28;20074;-68
2022/03/05 01:05:22;;;;;;;70.75;31.77;;;;;;;;;;6268354;28;20032;-68
2022/03/05 01:08:22;;;;;;;72.10;33.13;;;;;;;;;;6268272;28;20095;-69
2022/03/05 01:11:23;;;;;;;73.60;32.22;;;;;;;;;;6268450;28;20021;-68
2022/03/05 01:14:23;;;;;;;84.35;35.28;;;;;;;;;;6268312;28;20040;-68
2022/03/05 01:17:24;;;;;;;77.22;36.20;;;;;;;;;;6268143;28;20053;-68
2022/03/05 01:20:24;;;;;;;70.13;28.77;;;;;;;;;;6246521;28;20716;-68
2022/03/05 01:23:24;;;;;;;86.57;38.00;;;;;;;;;;6243693;28;20025;-68
2022/03/05 01:26:28;;;;;;;67.45;31.83;;;;;;;;;;6248082;28;20052;-68
2022/03/05 01:29:28;;;;;;;63.33;30.70;;;;;;;;;;6268767;28;20067;-68
2022/03/05 01:32:29;;;;;;;60.15;28.52;;;;;;;;;;6268352;28;20012;-68
2022/03/05 01:35:29;;;;;;;58.13;29.20;;;;;;;;;;6246690;28;20152;-68
2022/03/05 01:38:29;;;;;;;60.42;28.27;;;;;;;;;;6266463;28;20024;-68
2022/03/05 01:41:30;;;;;;;60.42;28.27;;;;;;;;;;6268309;28;20395;-68
2022/03/05 01:44:31;;;;;;;61.05;24.02;;;;;;;;;;6268414;28;20050;-68
2022/03/05 01:47:31;;;;;;;58.63;26.23;;;;;;;;;;6259681;28;20484;-68
2022/03/05 01:50:32;;;;;;;57.10;26.70;;;;;;;;;;6266929;28;20024;-68
2022/03/05 01:53:32;;;;;;;59.90;27.50;;;;;;;;;;6266802;28;20013;-68
2022/03/05 01:56:33;;;;;;;62.30;26.40;;;;;;;;;;6243263;28;20408;-68
2022/03/05 01:59:34;;;;;;;59.65;26.58;;;;;;;;;;6247447;28;20103;-68
2022/03/05 02:02:34;;;;;;;53.60;25.67;;;;;;;;;;6271802;28;20461;-68
2022/03/05 02:05:34;;;;;;;53.45;25.85;;;;;;;;;;6251451;28;20429;-68
2022/03/05 02:08:34;;;;;;;55.00;27.35;;;;;;;;;;6248512;28;20202;-68
2022/03/05 02:11:35;;;;;;;50.03;23.95;;;;;;;;;;6248063;28;20025;-68
2022/03/05 02:14:35;;;;;;;55.08;27.42;;;;;;;;;;6247985;28;20037;-68
2022/03/05 02:17:36;;;;;;;59.95;27.95;;;;;;;;;;6247223;28;20057;-68
2022/03/05 02:20:38;;;;;;;55.08;26.98;;;;;;;;;;6247719;28;20116;-68
2022/03/05 02:23:39;;;;;;;60.97;25.13;;;;;;;;;;6247256;28;20024;-68
2022/03/05 02:26:39;;;;;;;49.60;25.77;;;;;;;;;;6254597;28;20045;-68
2022/03/05 02:29:39;;;;;;;55.38;26.50;;;;;;;;;;6247164;28;20017;-68
2022/03/05 02:32:39;;;;;;;53.53;27.10;;;;;;;;;;6270957;28;20021;-69
2022/03/05 02:35:40;;;;;;;54.40;27.90;;;;;;;;;;6271629;28;20025;-69
2022/03/05 02:38:41;;;;;;;55.47;24.52;;;;;;;;;;6247248;28;20045;-68
2022/03/05 02:41:41;;;;;;;54.08;25.55;;;;;;;;;;6247066;28;20025;-68
2022/03/05 02:44:42;;;;;;;57.55;26.05;;;;;;;;;;6247247;28;20318;-68
2022/03/05 02:47:42;;;;;;;57.85;25.30;;;;;;;;;;6245081;28;20061;-68
2022/03/05 02:50:43;;;;;;;63.10;30.35;;;;;;;;;;6247326;28;20140;-68
2022/03/05 02:53:43;;;;;;;62.50;27.58;;;;;;;;;;6246396;28;20029;-68
2022/03/05 02:56:44;;;;;;;56.33;25.60;;;;;;;;;;6246973;28;20385;-68
2022/03/05 02:59:44;;;;;;;60.03;28.45;;;;;;;;;;6246334;28;20344;-68
2022/03/05 03:02:47;;;;;;;62.72;28.05;;;;;;;;;;6271247;28;20412;-68
2022/03/05 03:05:47;;;;;;;65.93;27.13;;;;;;;;;;6270476;28;20488;-68
2022/03/05 03:08:47;;;;;;;63.53;26.65;;;;;;;;;;6271010;28;20017;-68
2022/03/05 03:11:48;;;;;;;48.38;22.25;;;;;;;;;;6269982;28;20070;-68
2022/03/05 03:14:48;;;;;;;47.50;22.38;;;;;;;;;;6271642;28;20017;-68
2022/03/05 03:17:49;;;;;;;53.35;24.75;;;;;;;;;;6270279;28;20031;-68
2022/03/05 03:20:50;;;;;;;49.70;24.42;;;;;;;;;;6249877;28;20025;-68
2022/03/05 03:23:50;;;;;;;47.13;22.40;;;;;;;;;;6245683;28;20057;-68
2022/03/05 03:26:50;;;;;;;49.88;22.73;;;;;;;;;;6253082;28;20032;-68
2022/03/05 03:29:50;;;;;;;44.70;21.42;;;;;;;;;;6246929;28;20068;-68
2022/03/05 03:32:51;;;;;;;49.25;21.58;;;;;;;;;;6270605;28;20021;-68
2022/03/05 03:35:51;;;;;;;57.58;24.30;;;;;;;;;;6268805;28;20033;-68
2022/03/05 03:38:51;;;;;;;55.10;23.85;;;;;;;;;;6246142;28;20091;-68
2022/03/05 03:41:52;;;;;;;50.35;21.67;;;;;;;;;;6245551;28;20017;-68
2022/03/05 03:44:52;;;;;;;42.17;20.90;;;;;;;;;;6245603;28;20026;-68
2022/03/05 03:47:53;;;;;;;46.88;22.55;;;;;;;;;;6244877;28;20036;-68
2022/03/05 03:50:53;;;;;;;48.83;22.75;;;;;;;;;;6245485;28;20021;-68
2022/03/05 03:53:53;;;;;;;49.30;20.85;;;;;;;;;;6245072;28;20033;-68
2022/03/05 03:56:53;;;;;;;51.08;21.70;;;;;;;;;;6244820;28;20021;-68
2022/03/05 03:59:54;;;;;;;49.83;20.30;;;;;;;;;;6246532;28;20104;-68
2022/03/05 04:02:54;;;;;;;45.85;19.17;;;;;;;;;;6270152;28;20017;-67
2022/03/05 04:05:54;;;;;;;45.78;22.50;;;;;;;;;;6269437;28;20078;-67
2022/03/05 04:08:54;;;;;;;41.80;20.33;;;;;;;;;;6269662;28;20017;-66
2022/03/05 04:11:55;;;;;;;48.83;20.58;;;;;;;;;;6269253;28;20017;-66
2022/03/05 04:14:55;;;;;;;43.97;19.30;;;;;;;;;;6269821;28;20422;-66
2022/03/05 04:17:55;;;;;;;42.55;20.60;;;;;;;;;;6269148;28;20032;-66
2022/03/05 04:20:56;;;;;;;52.28;20.45;;;;;;;;;;6247683;28;20427;-66
2022/03/05 04:23:56;;;;;;;41.40;20.58;;;;;;;;;;6244140;28;20097;-66
2022/03/05 04:26:56;;;;;;;40.42;17.17;;;;;;;;;;6251830;28;20526;-66
2022/03/05 04:29:56;;;;;;;34.22;17.45;;;;;;;;;;6246215;28;20041;-66
2022/03/05 04:32:57;;;;;;;33.85;17.35;;;;;;;;;;6268689;28;20100;-66
2022/03/05 04:35:57;;;;;;;32.63;15.07;;;;;;;;;;6266448;28;20037;-66
2022/03/05 04:38:57;;;;;;;31.50;15.75;;;;;;;;;;6244250;28;20049;-66
2022/03/05 04:41:58;;;;;;;38.38;16.33;;;;;;;;;;6243949;28;20030;-66
2022/03/05 04:44:58;;;;;;;32.63;14.60;;;;;;;;;;6244101;28;20081;-66
2022/03/05 04:47:59;;;;;;;37.55;15.73;;;;;;;;;;6243401;28;20017;-66
2022/03/05 04:50:59;;;;;;;37.70;15.23;;;;;;;;;;6244026;28;20477;-66
2022/03/05 04:53:59;;;;;;;37.63;17.45;;;;;;;;;;6243833;28;20017;-66
2022/03/05 04:57:00;;;;;;;36.65;15.85;;;;;;;;;;6243449;28;20022;-66
2022/03/05 05:00:00;;;;;;;32.60;16.02;;;;;;;;;;6246020;28;20107;-66
2022/03/05 05:03:00;;;;;;;30.17;15.30;;;;;;;;;;6268297;28;20464;-66
2022/03/05 05:06:01;;;;;;;31.73;14.80;;;;;;;;;;6267639;28;20140;-67
2022/03/05 05:09:01;;;;;;;30.98;14.95;;;;;;;;;;6268571;28;20392;-67
2022/03/05 05:12:01;;;;;;;29.50;15.70;;;;;;;;;;6268300;28;20031;-67
2022/03/05 05:15:02;;;;;;;31.15;15.90;;;;;;;;;;6268178;28;20551;-67
2022/03/05 05:18:02;;;;;;;33.78;15.45;;;;;;;;;;6267689;28;20017;-67
2022/03/05 05:21:03;;;;;;;30.90;13.15;;;;;;;;;;6245405;28;20025;-67
2022/03/05 05:24:03;;;;;;;31.98;15.25;;;;;;;;;;6243024;28;20068;-67
2022/03/05 05:27:05;;;;;;;33.13;15.43;;;;;;;;;;6250891;28;20037;-67
2022/03/05 05:30:06;;;;;;;33.63;15.33;;;;;;;;;;6244989;28;20095;-67
2022/03/05 05:33:06;;;;;;;32.10;16.73;;;;;;;;;;6266168;28;20013;-67
2022/03/05 05:36:06;;;;;;;35.60;17.00;;;;;;;;;;6263741;28;20028;-67
2022/03/05 05:39:07;;;;;;;37.95;19.02;;;;;;;;;;6243067;28;20026;-67
2022/03/05 05:42:08;;;;;;;33.80;17.00;;;;;;;;;;6242683;28;20481;-67
2022/03/05 05:45:09;;;;;;;37.08;18.45;;;;;;;;;;6242907;28;20061;-67
2022/03/05 05:48:09;;;;;;;36.35;17.38;;;;;;;;;;6242466;28;20100;-67
2022/03/05 05:51:10;;;;;;;37.30;18.13;;;;;;;;;;6243092;28;20430;-67
2022/03/05 05:54:10;;;;;;;30.05;14.27;;;;;;;;;;6242732;28;20104;-67
2022/03/05 05:57:10;;;;;;;47.53;18.95;;;;;;;;;;6242418;28;20032;-67
2022/03/05 06:00:11;;;;;;;41.15;19.50;;;;;;;;;;6246500;28;20108;-67
2022/03/05 06:03:11;;;;;;;42.03;17.85;;;;;;;;;;6267550;28;20024;-67
2022/03/05 06:06:12;;;;;;;40.17;18.48;;;;;;;;;;6267140;28;20384;-67
2022/03/05 06:09:12;;;;;;;48.10;20.23;;;;;;;;;;6265427;28;20049;-67
2022/03/05 06:12:13;;;;;;;36.85;18.20;;;;;;;;;;6257736;28;20044;-67
2022/03/05 06:15:13;;;;;;;33.47;17.08;;;;;;;;;;6254698;28;20089;-67
2022/03/05 06:18:13;;;;;;;34.90;19.25;;;;;;;;;;6251830;28;20028;-67
2022/03/05 06:21:14;;;;;;;38.13;18.50;;;;;;;;;;6250069;28;20468;-67
2022/03/05 06:24:14;;;;;;;38.30;18.95;;;;;;;;;;6251663;28;20092;-67
2022/03/05 06:27:14;;;;;;;41.00;20.73;;;;;;;;;;6254760;28;20065;-67
2022/03/05 06:30:15;;;;;;;34.00;16.40;;;;;;;;;;6245538;28;20060;-67
2022/03/05 06:33:15;;;;;;;32.30;18.17;;;;;;;;;;6252584;28;20041;-67
2022/03/05 06:36:15;;;;;;;36.83;17.08;;;;;;;;;;6245311;28;20047;-67
2022/03/05 06:39:15;;;;;;;37.00;19.02;;;;;;;;;;6250962;28;20025;-67
2022/03/05 06:42:16;;;;;;;35.92;17.67;;;;;;;;;;6242986;28;20017;-67
2022/03/05 06:45:16;;;;;;;35.58;16.90;;;;;;;;;;6247310;28;20025;-67
2022/03/05 06:48:16;;;;;;;31.52;17.70;;;;;;;;;;6259014;28;20021;-68
2022/03/05 06:51:17;;;;;;;39.30;17.92;;;;;;;;;;6259489;28;20018;-69
2022/03/05 06:54:17;;;;;;;32.45;17.25;;;;;;;;;;6252815;28;20104;-70
2022/03/05 06:57:17;;;;;;;30.75;16.30;;;;;;;;;;6257098;28;20053;-70
2022/03/05 07:00:18;;;;;;;34.95;16.73;;;;;;;;;;6257777;28;20024;-70
2022/03/05 07:03:18;;;;;;;31.30;18.67;;;;;;;;;;6256791;28;20021;-70
2022/03/05 07:06:18;;;;;;;33.03;17.73;;;;;;;;;;6257600;28;20109;-70
2022/03/05 07:09:19;;;;;;;22.35;13.82;;;;;;;;;;6258335;28;20095;-70
2022/03/05 07:12:19;;;;;;;24.23;13.15;;;;;;;;;;6265307;28;20021;-70
2022/03/05 07:15:20;;;;;;;23.85;13.00;;;;;;;;;;6258126;28;20048;-71
2022/03/05 07:18:20;;;;;;;32.17;15.65;;;;;;;;;;6256843;28;20032;-71
2022/03/05 07:21:20;;;;;;;25.33;11.82;;;;;;;;;;6259602;28;20468;-71
2022/03/05 07:24:20;;;;;;;23.90;13.27;;;;;;;;;;6251025;28;20112;-70
2022/03/05 07:27:21;;;;;;;25.10;13.73;;;;;;;;;;6253126;28;20014;-70
2022/03/05 07:30:21;;;;;;;27.58;14.75;;;;;;;;;;6254422;28;20021;-70
2022/03/05 07:33:22;;;;;;;21.60;11.40;;;;;;;;;;6270819;28;20020;-71
2022/03/05 07:36:22;;;;;;;22.60;12.73;;;;;;;;;;6262676;28;20413;-70
2022/03/05 07:39:22;;;;;;;24.40;12.65;;;;;;;;;;6257962;28;20028;-70
2022/03/05 07:42:22;;;;;;;26.92;13.93;;;;;;;;;;6254816;28;20560;-70
2022/03/05 07:45:23;;;;;;;24.63;11.63;;;;;;;;;;6252485;28;20024;-70
2022/03/05 07:48:23;;;;;;;18.67;10.30;;;;;;;;;;6243899;28;20016;-70
2022/03/05 07:51:23;;;;;;;19.02;10.98;;;;;;;;;;6245551;28;20445;-70
2022/03/05 07:54:24;;;;;;;18.60;10.95;;;;;;;;;;6254098;28;20021;-70
2022/03/05 07:57:24;;;;;;;18.85;10.90;;;;;;;;;;6256629;28;20030;-70
2022/03/05 08:00:25;;;;;;;23.02;12.35;;;;;;;;;;6248730;28;20029;-70
2022/03/05 08:03:25;;;;;;;18.75;9.82;;;;;;;;;;6249570;28;20382;-70
2022/03/05 08:06:25;;;;;;;24.23;10.60;;;;;;;;;;6253709;28;20075;-70
2022/03/05 08:09:26;;;;;;;22.67;10.45;;;;;;;;;;6254853;28;20395;-70
2022/03/05 08:12:26;;;;;;;19.65;10.73;;;;;;;;;;6255006;28;20278;-70
2022/03/05 08:15:26;;;;;;;18.10;9.18;;;;;;;;;;6257194;28;20017;-70
2022/03/05 08:18:27;;;;;;;18.33;8.80;;;;;;;;;;6254360;28;20516;-70
2022/03/05 08:21:27;;;;;;;17.98;10.98;;;;;;;;;;6251357;28;20017;-70
2022/03/05 08:24:28;;;;;;;23.58;11.55;;;;;;;;;;6251036;28;20408;-70
2022/03/05 08:27:28;;;;;;;21.13;10.20;;;;;;;;;;6252781;28;20388;-70
2022/03/05 08:30:29;;;;;;;21.15;11.23;;;;;;;;;;6249006;28;20373;-70
2022/03/05 08:33:30;;;;;;;17.85;10.07;;;;;;;;;;6249943;28;20330;-70
2022/03/05 08:36:30;;;;;;;16.83;8.57;;;;;;;;;;6246530;28;20109;-70
2022/03/05 08:39:30;;;;;;;21.33;8.88;;;;;;;;;;6249779;28;20053;-70
2022/03/05 08:42:31;;;;;;;18.23;8.50;;;;;;;;;;6247083;28;20020;-70
2022/03/05 08:45:31;;;;;;;22.48;9.95;;;;;;;;;;6252695;28;20025;-70
2022/03/05 08:48:32;;;;;;;19.67;9.45;;;;;;;;;;6253418;28;20725;-70
2022/03/05 08:51:32;;;;;;;18.38;8.20;;;;;;;;;;6252419;28;20009;-70
2022/03/05 08:54:32;;;;;;;19.58;9.57;;;;;;;;;;6252941;28;20096;-70
2022/03/05 08:57:33;;;;;;;17.83;9.35;;;;;;;;;;6253366;28;20017;-70
2022/03/05 09:00:33;;;;;;;19.05;9.55;;;;;;;;;;6257172;28;20032;-70
2022/03/05 09:03:34;;;;;;;15.90;8.38;;;;;;;;;;6255440;28;20028;-70
2022/03/05 09:06:34;;;;;;;19.05;8.35;;;;;;;;;;6254766;28;20427;-70
2022/03/05 09:09:35;;;;;;;17.25;8.57;;;;;;;;;;6253603;28;20022;-70
2022/03/05 09:12:35;;;;;;;19.40;8.18;;;;;;;;;;6248273;28;20021;-70
2022/03/05 09:15:35;;;;;;;17.42;9.65;;;;;;;;;;6251454;28;20027;-70
2022/03/05 09:18:35;;;;;;;13.07;5.78;;;;;;;;;;6254810;28;20144;-70
2022/03/05 09:21:36;;;;;;;11.85;6.68;;;;;;;;;;6254570;28;20071;-70
2022/03/05 09:24:37;;;;;;;11.50;6.55;;;;;;;;;;6254796;28;20048;-70
2022/03/05 09:27:37;;;;;;;12.85;6.15;;;;;;;;;;6254410;28;20030;-70
2022/03/05 09:30:39;;;;;;;10.77;5.53;;;;;;;;;;6255801;28;20421;-70
2022/03/05 09:33:39;;;;;;;15.38;6.22;;;;;;;;;;6250280;28;20029;-70
2022/03/05 09:36:39;;;;;;;10.25;5.20;;;;;;;;;;6250184;28;20033;-70
2022/03/05 09:39:39;;;;;;;13.70;6.22;;;;;;;;;;6243998;28;20108;-70
2022/03/05 09:42:41;;;;;;;11.52;5.78;;;;;;;;;;6264001;28;20426;-70
2022/03/05 09:45:43;;;;;;;7.28;3.92;;;;;;;;;;6268105;28;20377;-70
2022/03/05 09:48:43;;;;;;;;;;;;;;;;;;6268614;28;20025;-70
2022/03/05 09:51:43;;;;;;;9.18;4.18;;;;;;;;;;6268227;28;19908;-70
2022/03/05 09:54:44;;;;;;;9.32;4.35;;;;;;;;;;6263769;28;20039;-70
2022/03/05 09:57:44;;;;;;;8.00;4.85;;;;;;;;;;6243036;28;20033;-70
2022/03/05 10:00:44;;;;;;;9.88;5.13;;;;;;;;;;6248438;28;20056;-70
2022/03/05 10:03:51;;;;;;;8.35;4.47;;;;;;;;;;6259831;28;20475;-70
2022/03/05 10:07:09;;;;;;;8.85;4.47;;;;;;;;;;6266904;28;20017;-70
2022/03/05 10:10:09;;;;;;;11.15;6.68;;;;;;;;;;6260452;28;20036;-70
2022/03/05 10:13:18;;;;;;;7.97;4.57;;;;;;;;;;6243253;28;20021;-70
2022/03/05 10:16:24;;;;;;;11.48;5.47;;;;;;;;;;6243440;28;20037;-70
2022/03/05 10:19:24;;;;;;;12.23;4.82;;;;;;;;;;6245045;28;20472;-70
2022/03/05 10:22:24;;;;;;;13.63;5.15;;;;;;;;;;6248199;28;20024;-70
2022/03/05 10:25:32;;;;;;;11.45;5.07;;;;;;;;;;6249940;28;20053;-70
2022/03/05 10:28:32;;;;;;;9.70;4.40;;;;;;;;;;6252539;28;20127;-70
2022/03/05 10:31:52;;;;;;;8.35;4.32;;;;;;;;;;6277241;28;20016;-70
2022/03/05 10:34:53;;;;;;;10.07;4.45;;;;;;;;;;6247590;28;20017;-70
2022/03/05 10:37:54;;;;;;;7.82;4.35;;;;;;;;;;6264793;28;20043;-70
2022/03/05 10:40:56;;;;;;;10.45;4.82;;;;;;;;;;6273233;28;20460;-71
2022/03/05 10:44:22;;;;;;;10.20;5.00;;;;;;;;;;6272500;28;20066;-71
2022/03/05 10:47:22;;;;;;;14.18;5.93;;;;;;;;;;6269236;28;20067;-71
2022/03/05 10:50:29;;;;;;;13.10;5.38;;;;;;;;;;6272611;28;20025;-71
2022/03/05 10:53:37;;;;;;;15.38;6.43;;;;;;;;;;6273275;28;20017;-71
2022/03/05 10:56:37;;;;;;;11.55;5.28;;;;;;;;;;6267424;28;20542;-71
2022/03/05 10:59:39;;;;;;;8.73;4.82;;;;;;;;;;6250731;28;20132;-71
2022/03/05 11:02:41;;;;;;;12.70;6.30;;;;;;;;;;6261787;28;20024;-71
2022/03/05 11:05:42;;;;;;;11.23;5.63;;;;;;;;;;6266331;28;20499;-71
2022/03/05 11:08:42;;;;;;;10.82;4.78;;;;;;;;;;6250905;28;20025;-70
2022/03/05 11:11:43;;;;;;;7.60;4.43;;;;;;;;;;6249782;28;20032;-70
2022/03/05 11:14:46;;;;;;;11.30;5.75;;;;;;;;;;6262656;28;20480;-70
2022/03/05 11:17:47;;;;;;;12.32;5.60;;;;;;;;;;6254422;28;20032;-70
2022/03/05 11:20:47;;;;;;;13.02;5.78;;;;;;;;;;6248479;28;20400;-70
2022/03/05 11:23:48;;;;;;;14.10;6.00;;;;;;;;;;6256746;28;20032;-70
2022/03/05 11:26:49;;;;;;;9.20;5.10;;;;;;;;;;6254097;28;20057;-70
2022/03/05 11:29:55;;;;;;;10.27;4.20;;;;;;;;;;6251313;28;20725;-70
2022/03/05 11:32:56;;;;;;;5.82;3.53;;;;;;;;;;6253107;28;20017;-70
2022/03/05 11:36:05;;;;;;;9.10;4.68;;;;;;;;;;6251576;28;20546;-70
2022/03/05 11:39:15;;;;;;;14.20;5.20;;;;;;;;;;6251386;28;20017;-71
2022/03/05 11:42:28;;;;;;;12.43;5.75;;;;;;;;;;6251247;28;20025;-71
2022/03/05 11:45:32;;;;;;;11.38;5.53;;;;;;;;;;6244167;28;20124;-71
2022/03/05 11:48:38;;;;;;;11.73;6.40;;;;;;;;;;6252734;28;20025;-71
2022/03/05 11:51:52;;;;;;;14.77;5.32;;;;;;;;;;6246625;28;20370;-71
2022/03/05 11:55:14;;;;;;;20.05;7.57;;;;;;;;;;6246484;28;20108;-71
2022/03/05 11:58:14;;;;;;;13.83;5.13;;;;;;;;;;6254613;28;20026;-71
2022/03/05 12:01:30;;;;;;;13.77;6.22;;;;;;;;;;6257249;28;20029;-71
2022/03/05 12:04:30;;;;;;;13.57;5.95;;;;;;;;;;6250800;28;20021;-71
2022/03/05 12:07:40;;;;;;;10.57;5.03;;;;;;;;;;6248097;28;20030;-71
2022/03/05 12:11:00;;;;;;;10.80;4.10;;;;;;;;;;6245105;28;20048;-71
2022/03/05 12:14:00;;;;;;;12.85;5.60;;;;;;;;;;6245184;28;20021;-71
2022/03/05 12:17:07;;;;;;;9.88;5.28;;;;;;;;;;6243149;28;20052;-71
2022/03/05 12:20:12;;;;;;;11.32;4.93;;;;;;;;;;6252970;28;20033;-71
2022/03/05 12:23:16;;;;;;;15.43;7.20;;;;;;;;;;6252043;28;20112;-71
2022/03/05 12:26:18;;;;;;;13.38;6.40;;;;;;;;;;6256997;28;20045;-71
2022/03/05 12:29:18;;;;;;;11.27;6.07;;;;;;;;;;6244527;28;20040;-71
2022/03/05 12:32:19;;;;;;;11.50;5.50;;;;;;;;;;6265105;28;20021;-71
2022/03/05 12:35:21;;;;;;;11.73;6.27;;;;;;;;;;6258060;28;20017;-71
2022/03/05 12:38:22;;;;;;;16.05;7.78;;;;;;;;;;6250855;28;20018;-71
2022/03/05 12:41:23;;;;;;;17.35;7.97;;;;;;;;;;6261228;28;20072;-71
2022/03/05 12:44:24;;;;;;;15.77;7.80;;;;;;;;;;6250349;28;20032;-71
2022/03/05 12:47:30;;;;;;;13.38;6.72;;;;;;;;;;6250464;28;20461;-71
2022/03/05 12:50:32;;;;;;;15.35;7.50;;;;;;;;;;6245079;28;20021;-71
2022/03/05 12:53:35;;;;;;;18.42;7.40;;;;;;;;;;6245749;28;20035;-71
2022/03/05 12:56:35;;;;;;;15.77;7.53;;;;;;;;;;6243581;28;20026;-71
2022/03/05 12:59:39;;;;;;;12.90;6.30;;;;;;;;;;6244653;28;20017;-71
2022/03/05 13:02:39;;;;;;;10.00;4.72;;;;;;;;;;6268262;28;20047;-70
2022/03/05 13:05:41;;;;;;;12.63;5.47;;;;;;;;;;6268061;28;20025;-70
2022/03/05 13:08:41;;;;;;;11.03;5.43;;;;;;;;;;6257781;28;20291;-70
2022/03/05 13:11:41;;;;;;;18.63;8.68;;;;;;;;;;6244334;28;20813;-71
2022/03/05 13:14:45;;;;;;;12.63;6.43;;;;;;;;;;6256734;28;20036;-71
2022/03/05 13:17:46;;;;;;;10.70;5.72;;;;;;;;;;6246872;28;20025;-71
2022/03/05 13:20:46;;;;;;;18.08;6.30;;;;;;;;;;6253017;28;20036;-71
2022/03/05 13:23:47;;;;;;;14.90;6.65;;;;;;;;;;6252941;28;20029;-71
2022/03/05 13:26:49;;;;;;;18.75;7.57;;;;;;;;;;6250653;28;20136;-71
2022/03/05 13:29:50;;;;;;;11.88;5.95;;;;;;;;;;6248431;28;20059;-71
2022/03/05 13:32:51;;;;;;;11.02;5.32;;;;;;;;;;6253882;28;20013;-71
2022/03/05 13:35:51;;;;;;;10.85;5.55;;;;;;;;;;6253170;28;20509;-71
2022/03/05 13:38:57;;;;;;;13.52;6.55;;;;;;;;;;6252950;28;20739;-71
2022/03/05 13:41:58;;;;;;;12.23;6.55;;;;;;;;;;6260400;28;20587;-71
2022/03/05 13:45:02;;;;;;;13.98;6.53;;;;;;;;;;6250595;28;20044;-71
2022/03/05 13:48:05;;;;;;;13.73;7.60;;;;;;;;;;6241626;28;20025;-71
2022/03/05 13:51:12;;;;;;;15.32;7.13;;;;;;;;;;6252039;28;20021;-71
2022/03/05 13:54:13;;;;;;;14.68;7.28;;;;;;;;;;6268406;28;20110;-71
2022/03/05 13:57:24;;;;;;;18.65;7.35;;;;;;;;;;6271054;28;20033;-71
2022/03/05 14:00:26;;;;;;;15.65;7.47;;;;;;;;;;6273951;28;20028;-71
2022/03/05 14:03:26;;;;;;;17.55;8.32;;;;;;;;;;6274273;28;20025;-71
2022/03/05 14:06:26;;;;;;;18.88;7.50;;;;;;;;;;6270893;28;20032;-70
2022/03/05 14:09:27;;;;;;;17.67;7.38;;;;;;;;;;6259531;28;20025;-71
2022/03/05 14:12:28;;;;;;;15.15;7.13;;;;;;;;;;6255991;28;20029;-70
2022/03/05 14:15:30;;;;;;;13.68;6.70;;;;;;;;;;6251899;28;20447;-70
2022/03/05 14:18:31;;;;;;;19.63;7.70;;;;;;;;;;6246202;28;20010;-70
2022/03/05 14:21:31;;;;;;;13.40;7.40;;;;;;;;;;6248813;28;20457;-71
2022/03/05 14:24:31;;;;;;;15.85;8.07;;;;;;;;;;6259549;28;20096;-71
2022/03/05 14:27:31;;;;;;;17.20;7.20;;;;;;;;;;6260741;28;20474;-71
2022/03/05 14:30:32;;;;;;;15.50;6.28;;;;;;;;;;6265623;28;20037;-71
2022/03/05 14:33:33;;;;;;;13.07;6.57;;;;;;;;;;6263695;28;20036;-71
2022/03/05 14:36:33;;;;;;;10.80;5.32;;;;;;;;;;6265886;28;20025;-71
2022/03/05 14:39:33;;;;;;;14.55;6.32;;;;;;;;;;6247392;28;20053;-71
2022/03/05 14:42:33;;;;;;;14.38;6.28;;;;;;;;;;6247515;28;20044;-71
2022/03/05 14:45:35;;;;;;;12.02;5.93;;;;;;;;;;6247822;28;20047;-71
2022/03/05 14:48:35;;;;;;;11.00;5.15;;;;;;;;;;6249319;28;20029;-70
2022/03/05 14:51:36;;;;;;;15.40;6.43;;;;;;;;;;6247937;28;20109;-70
2022/03/05 14:54:36;;;;;;;16.30;7.63;;;;;;;;;;6247345;28;20013;-70
2022/03/05 14:57:37;;;;;;;13.20;6.47;;;;;;;;;;6262542;28;20025;-70
2022/03/05 15:00:38;;;;;;;14.63;7.70;;;;;;;;;;6263284;28;20060;-70
2022/03/05 15:03:38;;;;;;;20.85;8.63;;;;;;;;;;6264792;28;20388;-71
2022/03/05 15:06:38;;;;;;;14.57;7.68;;;;;;;;;;6270280;28;20025;-70
2022/03/05 15:09:39;;;;;;;12.23;5.40;;;;;;;;;;6271193;28;20020;-70
2022/03/05 15:12:40;;;;;;;15.23;7.32;;;;;;;;;;6271550;28;20373;-70
2022/03/05 15:15:43;;;;;;;14.17;7.13;;;;;;;;;;6271347;28;20036;-70
2022/03/05 15:18:43;;;;;;;18.00;8.23;;;;;;;;;;6271480;28;20344;-70
2022/03/05 15:21:44;;;;;;;16.15;7.00;;;;;;;;;;6263862;28;20032;-70
2022/03/05 15:24:45;;;;;;;16.33;7.68;;;;;;;;;;6246610;28;20046;-71
2022/03/05 15:27:45;;;;;;;15.85;6.15;;;;;;;;;;6260670;28;20063;-71
2022/03/05 15:30:48;;;;;;;23.20;10.23;;;;;;;;;;6271003;28;20017;-71
2022/03/05 15:33:49;;;;;;;18.42;9.80;;;;;;;;;;6256831;28;20028;-71
2022/03/05 15:36:49;;;;;;;17.20;8.02;;;;;;;;;;6254564;28;20022;-71
2022/03/05 15:39:49;;;;;;;23.20;10.10;;;;;;;;;;6246116;28;20037;-71
2022/03/05 15:42:50;;;;;;;26.25;10.70;;;;;;;;;;6247105;28;20385;-71
2022/03/05 15:45:50;;;;;;;25.60;11.25;;;;;;;;;;6246695;28;20025;-71
2022/03/05 15:48:51;;;;;;;25.08;9.98;;;;;;;;;;6245192;28;20040;-71
2022/03/05 15:51:51;;;;;;;17.63;8.23;;;;;;;;;;6245514;28;20033;-70
2022/03/05 15:54:51;;;;;;;18.73;8.85;;;;;;;;;;6246254;28;20384;-70
2022/03/05 15:57:51;;;;;;;20.65;9.80;;;;;;;;;;6246704;28;20057;-71
2022/03/05 16:00:52;;;;;;;21.40;11.13;;;;;;;;;;6255250;28;20086;-71
2022/03/05 16:03:52;;;;;;;19.50;9.48;;;;;;;;;;6269540;28;20102;-70
2022/03/05 16:06:52;;;;;;;13.77;7.05;;;;;;;;;;6271534;28;20122;-70
2022/03/05 16:09:53;;;;;;;23.33;11.00;;;;;;;;;;6270890;28;20027;-70
2022/03/05 16:12:53;;;;;;;31.92;12.82;;;;;;;;;;6271438;28;20024;-70
2022/03/05 16:15:53;;;;;;;20.77;10.43;;;;;;;;;;6271025;28;20051;-71
2022/03/05 16:18:54;;;;;;;29.70;15.40;;;;;;;;;;6270429;28;20424;-70
2022/03/05 16:21:54;;;;;;;43.70;23.77;;;;;;;;;;6270772;28;20049;-70
2022/03/05 16:24:54;;;;;;;35.42;16.80;;;;;;;;;;6269326;28;20056;-71
2022/03/05 16:27:55;;;;;;;30.48;13.95;;;;;;;;;;6268141;28;20082;-70
2022/03/05 16:30:55;;;;;;;37.78;16.63;;;;;;;;;;6258277;28;20025;-70
2022/03/05 16:33:55;;;;;;;48.28;18.50;;;;;;;;;;6250380;28;20432;-70
2022/03/05 16:36:56;;;;;;;49.70;20.90;;;;;;;;;;6245729;28;20018;-70
2022/03/05 16:39:56;;;;;;;56.65;22.65;;;;;;;;;;6243237;28;20078;-70
2022/03/05 16:42:57;;;;;;;46.17;19.85;;;;;;;;;;6245720;28;20048;-70
2022/03/05 16:45:58;;;;;;;45.40;19.55;;;;;;;;;;6249924;28;20496;-70
2022/03/05 16:48:58;;;;;;;47.10;22.13;;;;;;;;;;6261039;28;20056;-70
2022/03/05 16:51:58;;;;;;;70.50;27.13;;;;;;;;;;6243462;28;20021;-70
2022/03/05 16:54:59;;;;;;;69.82;29.25;;;;;;;;;;6250962;28;20096;-70
2022/03/05 16:57:59;;;;;;;70.40;29.55;;;;;;;;;;6257735;28;20024;-70
2022/03/05 17:00:59;;;;;;;76.50;31.83;;;;;;;;;;6252021;28;20052;-70
2022/03/05 17:04:00;;;;;;;79.97;36.13;;;;;;;;;;6243548;28;20472;-70
2022/03/05 17:07:00;;;;;;;92.97;40.20;;;;;;;;;;6250448;28;20388;-69
2022/03/05 17:10:02;;;;;;;95.38;37.20;;;;;;;;;;6268201;28;20060;-69
2022/03/05 17:13:03;;;;;;;74.32;32.60;;;;;;;;;;6268089;28;20013;-69
2022/03/05 17:16:03;;;;;;;61.47;26.65;;;;;;;;;;6267865;28;20017;-68
2022/03/05 17:19:03;;;;;;;68.55;28.85;;;;;;;;;;6260922;28;20051;-67
2022/03/05 17:22:03;;;;;;;60.22;24.77;;;;;;;;;;6242889;28;20022;-67
2022/03/05 17:25:05;;;;;;;55.22;24.98;;;;;;;;;;6243334;28;20049;-67
2022/03/05 17:28:05;;;;;;;35.80;15.37;;;;;;;;;;6249703;28;20048;-67
2022/03/05 17:31:06;;;;;;;36.05;15.80;;;;;;;;;;6256857;28;20256;-67
2022/03/05 17:34:06;;;;;;;35.40;14.35;;;;;;;;;;6245580;28;20017;-67
2022/03/05 17:37:06;;;;;;;33.78;14.48;;;;;;;;;;6249769;28;20104;-66
2022/03/05 17:40:07;;;;;;;32.30;13.07;;;;;;;;;;6255254;28;20329;-66
2022/03/05 17:43:07;;;;;;;33.80;11.68;;;;;;;;;;6255646;28;20024;-66